createdAt,value
2024-02-24T00:03:41.731Z,11.85
2024-02-24T00:07:24.183Z,11.83
2024-02-24T00:11:06.967Z,11.77
2024-02-24T00:14:49.928Z,11.65
2024-02-24T00:18:32.519Z,11.71
2024-02-24T00:22:15.228Z,11.67
2024-02-24T00:25:57.917Z,11.64
2024-02-24T00:29:40.747Z,11.64
2024-02-24T00:33:23.911Z,11.62
2024-02-24T00:37:08.147Z,11.66
2024-02-24T00:40:50.800Z,11.64
2024-02-24T00:44:27.447Z,11.50
2024-02-24T00:48:04.374Z,11.52
2024-02-24T00:51:41.074Z,11.49
2024-02-24T00:55:17.680Z,11.51
2024-02-24T00:58:54.549Z,11.37
2024-02-24T01:02:37.366Z,11.28
2024-02-24T01:06:21.925Z,11.32
2024-02-24T01:10:06.219Z,11.39
2024-02-24T01:13:50.372Z,11.46
2024-02-24T01:17:20.011Z,11.48
2024-02-24T01:21:02.518Z,11.43
2024-02-24T01:24:45.644Z,11.37
2024-02-24T01:28:28.020Z,11.43
2024-02-24T01:32:10.642Z,11.43
2024-02-24T01:35:53.092Z,11.49
2024-02-24T01:39:35.716Z,11.54
2024-02-24T01:43:15.277Z,11.58
2024-02-24T01:46:51.333Z,11.51
2024-02-24T01:50:26.167Z,11.54
2024-02-24T01:54:00.873Z,11.53
2024-02-24T01:57:35.999Z,11.54
2024-02-24T02:01:11.560Z,11.49
2024-02-24T02:04:46.963Z,11.45
2024-02-24T02:08:27.825Z,11.46
2024-02-24T02:12:08.165Z,11.45
2024-02-24T02:15:49.570Z,11.45
2024-02-24T02:19:25.123Z,11.43
2024-02-24T02:23:00.419Z,11.43
2024-02-24T02:26:41.185Z,11.43
2024-02-24T02:30:22.218Z,11.43
2024-02-24T02:34:03.302Z,11.45
2024-02-24T02:37:43.944Z,11.42
2024-02-24T02:41:25.002Z,11.48
2024-02-24T02:45:06.215Z,11.47
2024-02-24T02:47:39.994Z,11.43
2024-02-24T02:50:13.800Z,11.33
2024-02-24T02:52:47.578Z,11.29
2024-02-24T02:55:22.268Z,11.35
2024-02-24T02:57:56.104Z,11.41
2024-02-24T03:00:29.822Z,11.39
2024-02-24T03:03:03.742Z,11.38
2024-02-24T03:05:37.678Z,11.38
2024-02-24T03:08:11.490Z,11.43
2024-02-24T03:10:45.426Z,11.43
2024-02-24T03:13:19.261Z,11.46
2024-02-24T03:15:53.139Z,11.47
2024-02-24T03:18:27.082Z,11.48
2024-02-24T03:21:00.869Z,11.48
2024-02-24T03:23:34.668Z,11.54
2024-02-24T03:26:08.570Z,11.54
2024-02-24T03:28:42.352Z,11.54
2024-02-24T03:31:16.129Z,11.56
2024-02-24T03:33:49.956Z,11.59
2024-02-24T03:36:23.701Z,11.59
2024-02-24T03:38:57.461Z,11.59
2024-02-24T03:41:32.955Z,11.57
2024-02-24T03:44:06.903Z,11.56
2024-02-24T03:46:40.728Z,11.52
2024-02-24T03:49:14.966Z,11.52
2024-02-24T03:51:48.710Z,11.54
2024-02-24T03:54:23.991Z,11.52
2024-02-24T03:56:57.696Z,11.50
2024-02-24T03:59:31.465Z,11.48
2024-02-24T04:02:05.439Z,11.47
2024-02-24T04:04:39.165Z,11.45
2024-02-24T04:07:13.744Z,11.47
2024-02-24T04:09:47.563Z,11.45
2024-02-24T04:12:21.556Z,11.45
2024-02-24T04:14:55.470Z,11.48
2024-02-24T04:17:29.284Z,11.49
2024-02-24T04:20:03.241Z,11.44
2024-02-24T04:22:37.140Z,11.40
2024-02-24T04:25:11.084Z,11.29
2024-02-24T04:27:44.836Z,11.20
2024-02-24T04:30:18.584Z,11.09
2024-02-24T04:32:52.483Z,10.98
2024-02-24T04:35:26.444Z,10.86
2024-02-24T04:38:00.309Z,10.70
2024-02-24T04:40:36.230Z,10.61
2024-02-24T04:43:10.237Z,10.58
2024-02-24T04:45:49.970Z,10.51
2024-02-24T04:48:24.424Z,10.43
2024-02-24T04:51:04.799Z,10.36
2024-02-24T04:53:44.866Z,10.37
2024-02-24T04:56:24.960Z,10.40
2024-02-24T04:59:04.839Z,10.41
2024-02-24T05:01:44.796Z,10.38
2024-02-24T05:04:24.649Z,10.37
2024-02-24T05:07:04.940Z,10.42
2024-02-24T05:09:44.765Z,10.39
2024-02-24T05:12:24.525Z,10.37
2024-02-24T05:14:58.297Z,10.46
2024-02-24T05:17:32.236Z,10.53
2024-02-24T05:20:08.658Z,10.59
2024-02-24T05:22:42.551Z,10.62
2024-02-24T05:25:18.095Z,10.70
2024-02-24T05:27:51.860Z,10.86
2024-02-24T05:30:25.588Z,10.94
2024-02-24T05:32:59.502Z,11.02
2024-02-24T05:35:33.465Z,11.13
2024-02-24T05:38:07.287Z,11.24
2024-02-24T05:40:35.047Z,11.34
2024-02-24T05:43:08.989Z,11.42
2024-02-24T05:45:43.215Z,11.53
2024-02-24T05:48:16.979Z,11.68
2024-02-24T05:50:50.886Z,11.79
2024-02-24T05:53:24.703Z,11.86
2024-02-24T05:55:58.851Z,11.92
2024-02-24T05:58:32.766Z,12.00
2024-02-24T06:01:06.488Z,12.12
2024-02-24T06:03:40.428Z,12.22
2024-02-24T06:06:14.519Z,12.20
2024-02-24T06:08:48.619Z,12.26
2024-02-24T06:11:22.717Z,12.40
2024-02-24T06:13:56.611Z,12.43
2024-02-24T06:16:30.363Z,12.49
2024-02-24T06:19:04.193Z,12.50
2024-02-24T06:21:37.977Z,12.52
2024-02-24T06:24:11.952Z,12.59
2024-02-24T06:26:45.747Z,12.75
2024-02-24T06:29:20.097Z,12.88
2024-02-24T06:31:53.875Z,12.92
2024-02-24T06:34:27.609Z,12.93
2024-02-24T06:37:01.426Z,13.06
2024-02-24T06:39:35.236Z,13.17
2024-02-24T06:42:09.061Z,13.25
2024-02-24T06:44:43.151Z,13.25
2024-02-24T06:47:24.834Z,13.31
2024-02-24T06:49:58.584Z,13.41
2024-02-24T06:52:34.038Z,13.46
2024-02-24T06:55:09.693Z,13.61
2024-02-24T06:57:37.700Z,13.69
2024-02-24T07:00:13.654Z,13.66
2024-02-24T07:02:49.219Z,13.64
2024-02-24T07:05:24.740Z,13.69
2024-02-24T07:07:58.600Z,13.67
2024-02-24T07:10:28.127Z,13.65
2024-02-24T07:13:03.581Z,13.70
2024-02-24T07:15:38.836Z,13.77
2024-02-24T07:18:06.905Z,13.76
2024-02-24T07:20:42.643Z,13.72
2024-02-24T07:23:18.117Z,13.78
2024-02-24T07:25:52.011Z,13.69
2024-02-24T07:28:23.124Z,13.67
2024-02-24T07:31:00.459Z,13.69
2024-02-24T07:33:37.528Z,13.75
2024-02-24T07:36:11.833Z,13.68
2024-02-24T07:38:45.884Z,13.71
2024-02-24T07:41:22.759Z,13.74
2024-02-24T07:43:59.863Z,13.75
2024-02-24T07:46:35.165Z,13.69
2024-02-24T07:49:03.249Z,13.73
2024-02-24T07:51:40.320Z,13.83
2024-02-24T07:54:15.698Z,13.80
2024-02-24T07:56:51.333Z,13.75
2024-02-24T07:59:19.387Z,13.77
2024-02-24T08:01:54.697Z,13.80
2024-02-24T08:04:30.091Z,13.90
2024-02-24T08:07:04.429Z,14.01
2024-02-24T08:09:33.973Z,14.01
2024-02-24T08:12:09.620Z,14.06
2024-02-24T08:14:44.980Z,14.09
2024-02-24T08:17:19.322Z,14.24
2024-02-24T08:19:48.628Z,14.44
2024-02-24T08:22:23.935Z,14.57
2024-02-24T08:24:59.161Z,14.70
2024-02-24T08:27:32.891Z,14.78
2024-02-24T08:30:05.337Z,14.77
2024-02-24T08:32:42.487Z,14.73
2024-02-24T08:35:21.108Z,14.66
2024-02-24T08:37:54.957Z,14.67
2024-02-24T08:40:25.835Z,14.66
2024-02-24T08:43:02.771Z,14.60
2024-02-24T08:45:39.640Z,14.60
2024-02-24T08:48:14.255Z,14.65
2024-02-24T08:50:45.218Z,14.73
2024-02-24T08:53:22.172Z,14.79
2024-02-24T08:55:59.184Z,14.91
2024-02-24T08:58:33.025Z,15.02
2024-02-24T09:01:03.916Z,15.03
2024-02-24T09:03:40.889Z,15.04
2024-02-24T09:06:17.945Z,15.12
2024-02-24T09:08:54.078Z,15.11
2024-02-24T09:11:23.921Z,15.14
2024-02-24T09:14:01.227Z,15.07
2024-02-24T09:16:38.083Z,14.95
2024-02-24T09:19:12.008Z,14.89
2024-02-24T09:21:43.132Z,14.83
2024-02-24T09:24:20.073Z,14.79
2024-02-24T09:26:56.878Z,14.64
2024-02-24T09:29:30.689Z,14.56
2024-02-24T09:32:03.352Z,14.56
2024-02-24T09:34:41.828Z,14.53
2024-02-24T09:37:20.343Z,14.57
2024-02-24T09:39:57.255Z,14.55
2024-02-24T09:42:28.835Z,14.56
2024-02-24T09:45:04.343Z,14.56
2024-02-24T09:47:39.903Z,14.62
2024-02-24T09:50:13.913Z,14.71
2024-02-24T09:52:43.569Z,14.74
2024-02-24T09:55:19.065Z,14.86
2024-02-24T09:57:56.752Z,15.00
2024-02-24T10:00:32.163Z,15.11
2024-02-24T10:03:00.067Z,15.26
2024-02-24T10:05:37.673Z,15.38
2024-02-24T10:08:13.676Z,15.48
2024-02-24T10:10:49.062Z,15.55
2024-02-24T10:13:21.429Z,15.53
2024-02-24T10:15:56.627Z,15.53
2024-02-24T10:18:34.364Z,15.49
2024-02-24T10:21:08.263Z,15.59
2024-02-24T10:23:37.573Z,15.62
2024-02-24T10:26:13.010Z,15.62
2024-02-24T10:28:48.560Z,15.67
2024-02-24T10:31:16.372Z,15.69
2024-02-24T10:33:49.219Z,15.74
2024-02-24T10:36:23.434Z,15.90
2024-02-24T10:38:57.240Z,16.04
2024-02-24T10:41:26.984Z,16.09
2024-02-24T10:44:10.692Z,16.11
2024-02-24T10:47:57.102Z,16.03
2024-02-24T10:51:39.987Z,15.99
2024-02-24T10:55:16.715Z,16.03
2024-02-24T10:58:53.704Z,15.99
2024-02-24T11:02:30.807Z,16.02
2024-02-24T11:06:07.596Z,16.17
2024-02-24T11:09:50.621Z,16.20
2024-02-24T11:13:33.248Z,16.29
2024-02-24T11:17:16.039Z,16.44
2024-02-24T11:20:59.292Z,16.56
2024-02-24T11:24:42.222Z,16.65
2024-02-24T11:28:24.882Z,16.72
2024-02-24T11:32:09.263Z,16.87
2024-02-24T11:35:53.656Z,16.97
2024-02-24T11:39:37.903Z,17.10
2024-02-24T11:43:22.577Z,17.17
2024-02-24T11:47:00.635Z,17.19
2024-02-24T11:50:37.489Z,17.30
2024-02-24T11:54:14.252Z,17.31
2024-02-24T11:57:50.974Z,17.36
2024-02-24T12:01:27.533Z,17.50
2024-02-24T12:05:04.179Z,17.46
2024-02-24T12:08:47.146Z,17.43
2024-02-24T12:12:23.921Z,17.39
2024-02-24T12:16:08.490Z,17.44
2024-02-24T12:19:53.036Z,17.38
2024-02-24T12:23:35.893Z,17.30
2024-02-24T12:27:18.685Z,17.19
2024-02-24T12:30:56.710Z,17.07
2024-02-24T12:34:33.302Z,17.14
2024-02-24T12:38:10.189Z,17.18
2024-02-24T12:41:47.015Z,17.16
2024-02-24T12:45:23.670Z,17.13
2024-02-24T12:49:00.823Z,17.15
2024-02-24T12:52:43.816Z,17.11
2024-02-24T12:56:20.880Z,17.07
2024-02-24T12:59:57.867Z,17.06
2024-02-24T13:03:37.193Z,17.08
2024-02-24T13:07:14.200Z,17.04
2024-02-24T13:10:53.558Z,17.02
2024-02-24T13:14:30.177Z,17.00
2024-02-24T13:18:07.180Z,16.92
2024-02-24T13:21:50.063Z,16.83
2024-02-24T13:25:32.846Z,16.76
2024-02-24T13:29:17.344Z,16.58
2024-02-24T13:33:02.124Z,16.50
2024-02-24T13:36:46.497Z,16.27
2024-02-24T13:40:30.943Z,16.15
2024-02-24T13:44:15.370Z,16.00
2024-02-24T13:47:56.497Z,15.90
2024-02-24T13:51:33.618Z,15.90
2024-02-24T13:55:10.684Z,15.84
2024-02-24T13:58:47.331Z,15.88
2024-02-24T14:02:24.343Z,15.90
2024-02-24T14:06:01.056Z,15.87
2024-02-24T14:09:37.955Z,15.84
2024-02-24T14:13:20.378Z,15.93
2024-02-24T14:17:03.113Z,15.80
2024-02-24T14:20:47.628Z,15.78
2024-02-24T14:24:31.932Z,15.70
2024-02-24T14:28:16.517Z,15.59
2024-02-24T14:32:00.729Z,15.52
2024-02-24T14:35:45.554Z,15.35
2024-02-24T14:39:29.753Z,15.19
2024-02-24T14:43:14.068Z,15.06
2024-02-24T14:45:54.210Z,15.00
2024-02-24T14:48:35.413Z,14.95
2024-02-24T14:51:09.639Z,14.86
2024-02-24T14:53:43.492Z,14.86
2024-02-24T14:56:23.530Z,14.78
2024-02-24T14:59:03.554Z,14.67
2024-02-24T15:01:37.485Z,14.66
2024-02-24T15:04:11.354Z,14.63
2024-02-24T15:06:51.351Z,14.60
2024-02-24T15:09:31.414Z,14.58
2024-02-24T15:12:05.715Z,14.48
2024-02-24T15:14:39.646Z,14.40
2024-02-24T15:17:19.665Z,14.35
2024-02-24T15:20:03.234Z,14.30
2024-02-24T15:22:37.978Z,14.28
2024-02-24T15:25:13.403Z,14.20
2024-02-24T15:27:53.582Z,14.12
2024-02-24T15:30:33.363Z,14.04
2024-02-24T15:33:07.568Z,13.94
2024-02-24T15:35:41.455Z,13.90
2024-02-24T15:38:21.628Z,13.88
2024-02-24T15:41:01.576Z,13.85
2024-02-24T15:43:59.626Z,13.82
2024-02-24T15:46:39.759Z,13.79
2024-02-24T15:49:14.362Z,13.75
2024-02-24T15:51:51.532Z,13.79
2024-02-24T15:54:31.480Z,13.79
2024-02-24T15:57:11.851Z,13.75
2024-02-24T15:59:45.934Z,13.76
2024-02-24T16:02:19.912Z,13.73
2024-02-24T16:04:59.858Z,13.70
2024-02-24T16:07:39.823Z,13.70
2024-02-24T16:10:13.912Z,13.72
2024-02-24T16:12:48.941Z,13.69
2024-02-24T16:15:28.835Z,13.64
2024-02-24T16:18:09.421Z,13.58
2024-02-24T16:20:43.939Z,13.52
2024-02-24T16:23:19.616Z,13.52
2024-02-24T16:25:59.685Z,13.47
2024-02-24T16:28:39.872Z,13.50
2024-02-24T16:31:13.871Z,13.48
2024-02-24T16:33:47.962Z,13.43
2024-02-24T16:36:28.530Z,13.47
2024-02-24T16:39:12.987Z,13.56
2024-02-24T16:41:54.432Z,13.62
2024-02-24T16:44:22.792Z,13.64
2024-02-24T16:47:02.993Z,13.66
2024-02-24T16:49:43.211Z,13.65
2024-02-24T16:52:23.121Z,13.65
2024-02-24T16:54:51.003Z,13.66
2024-02-24T16:57:30.932Z,13.63
2024-02-24T17:00:12.314Z,13.60
2024-02-24T17:02:46.408Z,13.55
2024-02-24T17:05:20.567Z,13.58
2024-02-24T17:08:00.814Z,13.59
2024-02-24T17:10:41.114Z,13.51
2024-02-24T17:13:15.196Z,13.51
2024-02-24T17:15:49.176Z,13.49
2024-02-24T17:18:30.895Z,13.51
2024-02-24T17:21:07.798Z,13.55
2024-02-24T17:23:43.305Z,13.56
2024-02-24T17:26:20.749Z,13.51
2024-02-24T17:29:00.969Z,13.42
2024-02-24T17:31:40.991Z,13.37
2024-02-24T17:34:15.947Z,13.38
2024-02-24T17:36:52.965Z,13.30
2024-02-24T17:39:32.967Z,13.26
2024-02-24T17:42:13.969Z,13.24
2024-02-24T17:44:54.155Z,13.17
2024-02-24T17:47:22.441Z,13.18
2024-02-24T17:50:02.738Z,13.21
2024-02-24T17:52:42.655Z,13.24
2024-02-24T17:55:19.343Z,13.19
2024-02-24T17:57:53.682Z,13.17
2024-02-24T18:00:34.038Z,13.15
2024-02-24T18:03:15.651Z,13.11
2024-02-24T18:05:49.643Z,13.14
2024-02-24T18:08:23.624Z,13.02
2024-02-24T18:11:03.634Z,13.02
2024-02-24T18:13:44.230Z,13.07
2024-02-24T18:16:18.148Z,13.02
2024-02-24T18:18:52.386Z,13.04
2024-02-24T18:21:32.332Z,13.02
2024-02-24T18:24:12.459Z,13.02
2024-02-24T18:26:46.510Z,12.99
2024-02-24T18:29:20.481Z,12.96
2024-02-24T18:32:00.463Z,12.89
2024-02-24T18:34:41.341Z,12.82
2024-02-24T18:37:15.246Z,12.71
2024-02-24T18:39:49.091Z,12.71
2024-02-24T18:42:28.902Z,12.74
2024-02-24T18:45:09.032Z,12.69
2024-02-24T18:48:49.908Z,12.66
2024-02-24T18:52:32.678Z,12.68
2024-02-24T18:56:09.801Z,12.68
2024-02-24T18:59:46.365Z,12.69
2024-02-24T19:03:29.224Z,12.70
2024-02-24T19:07:05.913Z,12.72
2024-02-24T19:10:48.579Z,12.68
2024-02-24T19:14:25.605Z,12.81
2024-02-24T19:18:08.465Z,12.79
2024-02-24T19:21:51.246Z,12.82
2024-02-24T19:25:34.082Z,12.93
2024-02-24T19:29:17.464Z,12.94
2024-02-24T19:32:54.586Z,12.90
2024-02-24T19:36:37.282Z,12.92
2024-02-24T19:40:20.116Z,12.92
2024-02-24T19:44:03.016Z,12.97
2024-02-24T19:47:45.986Z,12.91
2024-02-24T19:51:29.308Z,12.93
2024-02-24T19:55:12.052Z,12.99
2024-02-24T19:58:56.681Z,13.04
2024-02-24T20:02:39.890Z,13.13
2024-02-24T20:06:22.822Z,13.11
2024-02-24T20:10:05.847Z,13.10
2024-02-24T20:13:48.458Z,13.14
2024-02-24T20:17:31.112Z,13.09
2024-02-24T20:21:13.872Z,13.05
2024-02-24T20:24:56.565Z,13.10
2024-02-24T20:28:41.744Z,13.10
2024-02-24T20:32:26.564Z,13.10
2024-02-24T20:36:09.554Z,13.05
2024-02-24T20:39:52.591Z,13.07
2024-02-24T20:43:35.243Z,13.08
2024-02-24T20:47:18.170Z,13.02
2024-02-24T20:51:01.122Z,12.96
2024-02-24T20:54:44.051Z,12.86
2024-02-24T20:58:26.736Z,12.87
2024-02-24T21:02:09.285Z,12.85
2024-02-24T21:05:52.140Z,12.77
2024-02-24T21:09:34.820Z,12.73
2024-02-24T21:13:17.631Z,12.63
2024-02-24T21:17:00.541Z,12.59
2024-02-24T21:20:43.255Z,12.54
2024-02-24T21:24:26.176Z,12.46
2024-02-24T21:28:10.786Z,12.46
2024-02-24T21:31:55.042Z,12.41
2024-02-24T21:35:39.519Z,12.43
2024-02-24T21:39:22.373Z,12.42
2024-02-24T21:43:06.487Z,12.36
2024-02-24T21:46:49.181Z,12.32
2024-02-24T21:50:33.814Z,12.27
2024-02-24T21:54:16.699Z,12.25
2024-02-24T21:58:01.140Z,12.22
2024-02-24T22:01:43.511Z,12.19
2024-02-24T22:05:28.117Z,12.14
2024-02-24T22:09:11.332Z,12.07
2024-02-24T22:12:55.360Z,12.00
2024-02-24T22:16:38.022Z,12.02
2024-02-24T22:20:22.561Z,12.01
2024-02-24T22:24:05.144Z,12.02
2024-02-24T22:27:47.618Z,12.00
2024-02-24T22:31:30.438Z,11.99
2024-02-24T22:35:13.312Z,11.97
2024-02-24T22:38:55.847Z,11.93
2024-02-24T22:42:38.718Z,11.87
2024-02-24T22:46:36.735Z,11.84
2024-02-24T22:50:25.411Z,11.88
2024-02-24T22:54:14.349Z,11.83
2024-02-24T22:58:02.962Z,11.82
2024-02-24T23:01:51.869Z,11.82
2024-02-24T23:05:40.733Z,11.81
2024-02-24T23:09:29.585Z,11.82
2024-02-24T23:13:18.439Z,11.83
2024-02-24T23:17:07.359Z,11.88
2024-02-24T23:20:55.851Z,11.82
2024-02-24T23:24:44.922Z,11.82
2024-02-24T23:28:33.595Z,11.86
2024-02-24T23:32:22.308Z,11.92
2024-02-24T23:36:11.292Z,11.87
2024-02-24T23:40:00.181Z,11.90
2024-02-24T23:43:48.679Z,11.88
2024-02-24T23:47:38.072Z,11.77
2024-02-24T23:51:26.519Z,11.77
2024-02-24T23:55:14.917Z,11.70
2024-02-24T23:59:03.806Z,11.72
